sensor_id;sensor_type;location;lat;lon;timestamp;pressure;altitude;pressure_sealevel;temperature;humidity
32109;BME280;18624;50.042;8.436;2022-09-03T00:05:07;100097.16;;;18.98;42.73
32109;BME280;18624;50.042;8.436;2022-09-03T00:07:51;100081.22;;;18.93;42.74
32109;BME280;18624;50.042;8.436;2022-09-03T00:10:36;99959.84;;;18.04;42.79
32109;BME280;18624;50.042;8.436;2022-09-03T00:13:06;99984.59;;;18.08;42.78
32109;BME280;18624;50.042;8.436;2022-09-03T00:15:35;100021.72;;;18.42;42.87
32109;BME280;18624;50.042;8.436;2022-09-03T00:21:09;100086.66;;;18.82;43.07
32109;BME280;18624;50.042;8.436;2022-09-03T00:23:39;99988.31;;;18.05;43.41
32109;BME280;18624;50.042;8.436;2022-09-03T00:29:08;100096.06;;;18.64;43.56
32109;BME280;18624;50.042;8.436;2022-09-03T00:31:40;100087.47;;;18.62;43.67
32109;BME280;18624;50.042;8.436;2022-09-03T00:34:25;100041.25;;;18.27;43.78
32109;BME280;18624;50.042;8.436;2022-09-03T00:36:52;100086.97;;;18.63;43.56
32109;BME280;18624;50.042;8.436;2022-09-03T00:39:21;100091.03;;;18.62;43.62
32109;BME280;18624;50.042;8.436;2022-09-03T00:42:03;100079.50;;;18.43;44.15
32109;BME280;18624;50.042;8.436;2022-09-03T00:56:01;100036.03;;;18.35;44.16
32109;BME280;18624;50.042;8.436;2022-09-03T00:58:56;100071.97;;;18.50;44.45
32109;BME280;18624;50.042;8.436;2022-09-03T01:04:27;99985.72;;;17.95;44.46
32109;BME280;18624;50.042;8.436;2022-09-03T01:07:22;100027.22;;;18.10;44.62
32109;BME280;18624;50.042;8.436;2022-09-03T01:10:45;100073.75;;;18.47;44.62
32109;BME280;18624;50.042;8.436;2022-09-03T01:12:55;100069.69;;;18.48;44.60
32109;BME280;18624;50.042;8.436;2022-09-03T01:18:39;100035.91;;;18.23;44.50
32109;BME280;18624;50.042;8.436;2022-09-03T01:21:38;100055.25;;;18.38;44.62
32109;BME280;18624;50.042;8.436;2022-09-03T01:24:40;100011.44;;;17.96;44.69
32109;BME280;18624;50.042;8.436;2022-09-03T01:29:59;100068.28;;;18.32;45.23
32109;BME280;18624;50.042;8.436;2022-09-03T01:32:52;100070.94;;;18.21;45.95
32109;BME280;18624;50.042;8.436;2022-09-03T01:35:33;100019.59;;;17.79;45.59
32109;BME280;18624;50.042;8.436;2022-09-03T01:47:26;100071.72;;;18.21;45.79
32109;BME280;18624;50.042;8.436;2022-09-03T01:50:15;100011.59;;;17.87;45.93
32109;BME280;18624;50.042;8.436;2022-09-03T01:53:02;100060.34;;;18.19;45.97
32109;BME280;18624;50.042;8.436;2022-09-03T01:55:55;99971.91;;;17.55;45.83
32109;BME280;18624;50.042;8.436;2022-09-03T01:58:36;100062.13;;;18.22;45.78
32109;BME280;18624;50.042;8.436;2022-09-03T02:01:12;99997.41;;;17.79;45.96
32109;BME280;18624;50.042;8.436;2022-09-03T02:03:44;99989.84;;;17.80;46.07
32109;BME280;18624;50.042;8.436;2022-09-03T02:06:11;100060.81;;;18.18;46.39
32109;BME280;18624;50.042;8.436;2022-09-03T02:08:38;100033.41;;;18.00;46.44
32109;BME280;18624;50.042;8.436;2022-09-03T02:11:07;99971.56;;;17.47;46.21
32109;BME280;18624;50.042;8.436;2022-09-03T02:13:40;100076.50;;;18.21;46.34
32109;BME280;18624;50.042;8.436;2022-09-03T02:16:22;100072.47;;;18.22;46.24
32109;BME280;18624;50.042;8.436;2022-09-03T02:18:54;100010.91;;;17.71;46.39
32109;BME280;18624;50.042;8.436;2022-09-03T02:21:23;100067.13;;;18.18;46.29
32109;BME280;18624;50.042;8.436;2022-09-03T02:23:50;99919.44;;;17.25;46.43
32109;BME280;18624;50.042;8.436;2022-09-03T02:26:20;99967.13;;;17.55;46.47
32109;BME280;18624;50.042;8.436;2022-09-03T02:28:49;100059.56;;;18.19;46.75
32109;BME280;18624;50.042;8.436;2022-09-03T02:31:16;100058.81;;;18.18;46.52
32109;BME280;18624;50.042;8.436;2022-09-03T02:33:44;100066.16;;;18.21;46.54
32109;BME280;18624;50.042;8.436;2022-09-03T02:36:14;100029.28;;;17.89;46.68
32109;BME280;18624;50.042;8.436;2022-09-03T02:38:42;100068.44;;;18.23;46.81
32109;BME280;18624;50.042;8.436;2022-09-03T02:41:09;100031.69;;;18.02;46.52
32109;BME280;18624;50.042;8.436;2022-09-03T02:43:41;100020.47;;;17.91;46.69
32109;BME280;18624;50.042;8.436;2022-09-03T02:46:17;100068.72;;;18.25;46.71
32109;BME280;18624;50.042;8.436;2022-09-03T02:48:47;100024.88;;;18.03;46.92
32109;BME280;18624;50.042;8.436;2022-09-03T02:51:13;99892.09;;;17.12;46.95
32109;BME280;18624;50.042;8.436;2022-09-03T02:53:41;99975.84;;;17.68;46.88
32109;BME280;18624;50.042;8.436;2022-09-03T02:56:07;99950.59;;;17.40;47.18
32109;BME280;18624;50.042;8.436;2022-09-03T02:58:34;100068.38;;;18.17;47.09
32109;BME280;18624;50.042;8.436;2022-09-03T03:01:01;99882.53;;;16.93;47.28
32109;BME280;18624;50.042;8.436;2022-09-03T03:03:28;100077.75;;;18.20;47.24
32109;BME280;18624;50.042;8.436;2022-09-03T03:05:57;99905.25;;;17.17;47.25
32109;BME280;18624;50.042;8.436;2022-09-03T03:08:26;99927.59;;;17.34;47.25
32109;BME280;18624;50.042;8.436;2022-09-03T03:10:55;100015.91;;;17.88;47.18
32109;BME280;18624;50.042;8.436;2022-09-03T03:13:24;100063.22;;;18.31;47.53
32109;BME280;18624;50.042;8.436;2022-09-03T03:15:51;99919.69;;;17.48;47.20
32109;BME280;18624;50.042;8.436;2022-09-03T03:18:20;100059.75;;;18.36;47.06
32109;BME280;18624;50.042;8.436;2022-09-03T03:20:47;99974.47;;;17.79;47.14
32109;BME280;18624;50.042;8.436;2022-09-03T03:23:13;99991.44;;;17.86;47.18
32109;BME280;18624;50.042;8.436;2022-09-03T03:25:39;99922.13;;;17.40;47.41
32109;BME280;18624;50.042;8.436;2022-09-03T03:28:06;100068.78;;;18.31;47.46
32109;BME280;18624;50.042;8.436;2022-09-03T03:30:36;100067.50;;;18.32;47.49
32109;BME280;18624;50.042;8.436;2022-09-03T03:33:06;99951.94;;;17.51;47.68
32109;BME280;18624;50.042;8.436;2022-09-03T03:35:32;100067.03;;;18.33;47.59
32109;BME280;18624;50.042;8.436;2022-09-03T03:37:59;100031.72;;;18.08;47.66
32109;BME280;18624;50.042;8.436;2022-09-03T03:40:25;99996.75;;;17.90;47.79
32109;BME280;18624;50.042;8.436;2022-09-03T03:42:52;99925.38;;;17.38;47.78
32109;BME280;18624;50.042;8.436;2022-09-03T03:45:19;100004.25;;;17.84;48.23
32109;BME280;18624;50.042;8.436;2022-09-03T03:47:46;99967.13;;;17.55;48.01
32109;BME280;18624;50.042;8.436;2022-09-03T03:50:12;100064.09;;;18.16;48.24
32109;BME280;18624;50.042;8.436;2022-09-03T03:52:38;100048.91;;;18.12;48.64
32109;BME280;18624;50.042;8.436;2022-09-03T03:55:05;99919.50;;;17.10;48.62
32109;BME280;18624;50.042;8.436;2022-09-03T03:57:32;99972.34;;;17.48;48.68
32109;BME280;18624;50.042;8.436;2022-09-03T03:59:58;99912.38;;;17.04;48.82
32109;BME280;18624;50.042;8.436;2022-09-03T04:02:24;100016.25;;;17.75;48.94
32109;BME280;18624;50.042;8.436;2022-09-03T04:04:51;100030.72;;;17.85;49.00
32109;BME280;18624;50.042;8.436;2022-09-03T04:07:19;100034.59;;;17.93;48.86
32109;BME280;18624;50.042;8.436;2022-09-03T04:09:45;100048.13;;;18.06;48.86
32109;BME280;18624;50.042;8.436;2022-09-03T04:12:12;99932.72;;;17.21;48.80
32109;BME280;18624;50.042;8.436;2022-09-03T04:14:38;99977.94;;;17.53;49.09
32109;BME280;18624;50.042;8.436;2022-09-03T04:17:05;100055.78;;;17.96;49.25
32109;BME280;18624;50.042;8.436;2022-09-03T04:19:31;100005.28;;;17.66;49.08
32109;BME280;18624;50.042;8.436;2022-09-03T04:21:58;100017.03;;;17.76;49.10
32109;BME280;18624;50.042;8.436;2022-09-03T04:24:24;100047.22;;;17.94;49.31
32109;BME280;18624;50.042;8.436;2022-09-03T04:26:52;99972.69;;;17.35;49.50
32109;BME280;18624;50.042;8.436;2022-09-03T04:29:19;100051.66;;;17.86;49.67
32109;BME280;18624;50.042;8.436;2022-09-03T04:31:47;99848.22;;;16.50;49.49
32109;BME280;18624;50.042;8.436;2022-09-03T04:34:32;100044.59;;;17.85;49.65
32109;BME280;18624;50.042;8.436;2022-09-03T04:36:58;99970.13;;;17.31;49.77
32109;BME280;18624;50.042;8.436;2022-09-03T04:39:25;100049.59;;;17.81;49.93
32109;BME280;18624;50.042;8.436;2022-09-03T04:41:51;100039.00;;;17.79;49.89
32109;BME280;18624;50.042;8.436;2022-09-03T04:44:18;100018.03;;;17.58;49.89
32109;BME280;18624;50.042;8.436;2022-09-03T04:46:44;99977.81;;;17.21;50.27
32109;BME280;18624;50.042;8.436;2022-09-03T04:49:12;99906.75;;;16.78;50.14
32109;BME280;18624;50.042;8.436;2022-09-03T04:51:39;99920.06;;;16.94;50.21
32109;BME280;18624;50.042;8.436;2022-09-03T04:54:06;100001.75;;;17.45;50.33
32109;BME280;18624;50.042;8.436;2022-09-03T04:56:34;100047.50;;;17.76;50.51
32109;BME280;18624;50.042;8.436;2022-09-03T04:59:03;100047.97;;;17.74;50.76
32109;BME280;18624;50.042;8.436;2022-09-03T05:01:32;99990.25;;;17.32;50.87
32109;BME280;18624;50.042;8.436;2022-09-03T05:04:00;99815.53;;;16.13;50.64
32109;BME280;18624;50.042;8.436;2022-09-03T05:06:28;99972.47;;;17.18;50.83
32109;BME280;18624;50.042;8.436;2022-09-03T05:08:55;99880.25;;;16.56;51.05
32109;BME280;18624;50.042;8.436;2022-09-03T05:11:22;100058.31;;;17.74;51.18
32109;BME280;18624;50.042;8.436;2022-09-03T05:13:51;100058.00;;;17.71;51.58
32109;BME280;18624;50.042;8.436;2022-09-03T05:16:19;99934.84;;;16.91;51.52
32109;BME280;18624;50.042;8.436;2022-09-03T05:18:46;100045.41;;;17.70;51.25
32109;BME280;18624;50.042;8.436;2022-09-03T05:21:15;100066.22;;;17.81;51.43
32109;BME280;18624;50.042;8.436;2022-09-03T05:23:44;100072.47;;;17.76;51.81
32109;BME280;18624;50.042;8.436;2022-09-03T05:26:13;100074.47;;;17.75;51.61
32109;BME280;18624;50.042;8.436;2022-09-03T05:28:41;100073.00;;;17.80;51.77
32109;BME280;18624;50.042;8.436;2022-09-03T05:31:16;100013.81;;;17.42;51.71
32109;BME280;18624;50.042;8.436;2022-09-03T05:33:46;99925.50;;;16.88;51.87
32109;BME280;18624;50.042;8.436;2022-09-03T05:36:15;100072.81;;;17.83;51.89
32109;BME280;18624;50.042;8.436;2022-09-03T05:38:42;100078.06;;;17.81;51.90
32109;BME280;18624;50.042;8.436;2022-09-03T05:41:10;100083.44;;;17.70;52.27
32109;BME280;18624;50.042;8.436;2022-09-03T05:43:37;100023.66;;;17.43;52.20
32109;BME280;18624;50.042;8.436;2022-09-03T05:46:09;100025.66;;;17.42;52.05
32109;BME280;18624;50.042;8.436;2022-09-03T05:48:38;100098.78;;;17.86;52.19
32109;BME280;18624;50.042;8.436;2022-09-03T05:51:07;100051.28;;;17.58;52.31
32109;BME280;18624;50.042;8.436;2022-09-03T05:53:37;100033.28;;;17.48;52.46
32109;BME280;18624;50.042;8.436;2022-09-03T05:56:09;100051.91;;;17.47;52.58
32109;BME280;18624;50.042;8.436;2022-09-03T05:58:41;100098.53;;;17.84;52.89
32109;BME280;18624;50.042;8.436;2022-09-03T06:01:22;100109.13;;;17.85;52.75
32109;BME280;18624;50.042;8.436;2022-09-03T06:06:20;100124.22;;;17.84;53.21
32109;BME280;18624;50.042;8.436;2022-09-03T06:08:51;100087.13;;;17.61;53.13
32109;BME280;18624;50.042;8.436;2022-09-03T06:11:18;100044.41;;;17.33;52.96
32109;BME280;18624;50.042;8.436;2022-09-03T06:13:45;100035.84;;;17.31;53.19
32109;BME280;18624;50.042;8.436;2022-09-03T06:16:12;100113.84;;;17.79;53.26
32109;BME280;18624;50.042;8.436;2022-09-03T06:18:39;99965.34;;;16.76;53.39
32109;BME280;18624;50.042;8.436;2022-09-03T06:21:06;100092.09;;;17.57;53.73
32109;BME280;18624;50.042;8.436;2022-09-03T06:23:34;99855.22;;;15.95;53.76
32109;BME280;18624;50.042;8.436;2022-09-03T06:26:09;100113.34;;;17.81;54.03
32109;BME280;18624;50.042;8.436;2022-09-03T06:28:41;100085.31;;;17.58;54.08
32109;BME280;18624;50.042;8.436;2022-09-03T06:31:11;99647.22;;;14.56;53.99
32109;BME280;18624;50.042;8.436;2022-09-03T06:33:40;100114.50;;;17.74;53.83
32109;BME280;18624;50.042;8.436;2022-09-03T06:36:10;100115.28;;;17.75;54.25
32109;BME280;18624;50.042;8.436;2022-09-03T06:38:39;100063.34;;;17.34;54.12
32109;BME280;18624;50.042;8.436;2022-09-03T06:41:08;100124.16;;;17.79;54.27
32109;BME280;18624;50.042;8.436;2022-09-03T06:43:37;100127.19;;;17.81;54.24
32109;BME280;18624;50.042;8.436;2022-09-03T06:46:13;100058.00;;;17.31;54.45
32109;BME280;18624;50.042;8.436;2022-09-03T06:48:40;100128.31;;;17.89;54.36
32109;BME280;18624;50.042;8.436;2022-09-03T06:51:13;99957.63;;;16.80;54.22
32109;BME280;18624;50.042;8.436;2022-09-03T06:53:42;100136.00;;;18.00;55.03
32109;BME280;18624;50.042;8.436;2022-09-03T06:56:15;100147.59;;;17.98;56.42
32109;BME280;18624;50.042;8.436;2022-09-03T06:58:46;100136.00;;;18.00;56.48
32109;BME280;18624;50.042;8.436;2022-09-03T07:01:22;100127.75;;;18.05;57.39
32109;BME280;18624;50.042;8.436;2022-09-03T07:03:52;100071.25;;;17.62;56.42
32109;BME280;18624;50.042;8.436;2022-09-03T07:06:23;100011.66;;;17.31;58.53
32109;BME280;18624;50.042;8.436;2022-09-03T07:08:50;100133.44;;;18.16;57.87
32109;BME280;18624;50.042;8.436;2022-09-03T07:11:20;100127.94;;;18.22;55.72
32109;BME280;18624;50.042;8.436;2022-09-03T07:13:49;100113.47;;;18.12;55.72
32109;BME280;18624;50.042;8.436;2022-09-03T07:16:34;100129.25;;;18.27;56.47
32109;BME280;18624;50.042;8.436;2022-09-03T07:19:01;100124.47;;;18.27;56.03
32109;BME280;18624;50.042;8.436;2022-09-03T07:21:32;100070.16;;;17.74;55.94
32109;BME280;18624;50.042;8.436;2022-09-03T07:24:02;100130.22;;;18.23;56.84
32109;BME280;18624;50.042;8.436;2022-09-03T07:26:34;100127.44;;;18.23;57.33
32109;BME280;18624;50.042;8.436;2022-09-03T07:29:01;99809.06;;;16.01;57.04
32109;BME280;18624;50.042;8.436;2022-09-03T07:31:29;100135.56;;;18.27;56.38
32109;BME280;18624;50.042;8.436;2022-09-03T07:34:01;100035.94;;;17.57;57.38
32109;BME280;18624;50.042;8.436;2022-09-03T07:36:40;100132.88;;;18.33;58.30
32109;BME280;18624;50.042;8.436;2022-09-03T07:39:09;100008.56;;;17.44;59.50
32109;BME280;18624;50.042;8.436;2022-09-03T07:41:40;100142.22;;;18.35;61.65
32109;BME280;18624;50.042;8.436;2022-09-03T07:44:15;100000.09;;;17.33;60.92
32109;BME280;18624;50.042;8.436;2022-09-03T07:46:44;100018.78;;;17.38;62.18
32109;BME280;18624;50.042;8.436;2022-09-03T07:49:12;100077.31;;;17.81;63.62
32109;BME280;18624;50.042;8.436;2022-09-03T07:51:39;100141.81;;;18.22;66.46
32109;BME280;18624;50.042;8.436;2022-09-03T07:54:09;100099.84;;;17.88;68.47
32109;BME280;18624;50.042;8.436;2022-09-03T07:56:38;100058.16;;;17.62;71.33
32109;BME280;18624;50.042;8.436;2022-09-03T07:59:04;100077.13;;;17.69;73.88
32109;BME280;18624;50.042;8.436;2022-09-03T08:01:32;100076.59;;;17.65;75.01
32109;BME280;18624;50.042;8.436;2022-09-03T08:04:00;100151.19;;;18.04;71.34
32109;BME280;18624;50.042;8.436;2022-09-03T08:06:28;100120.13;;;17.80;72.83
32109;BME280;18624;50.042;8.436;2022-09-03T08:09:01;100153.59;;;17.96;74.21
32109;BME280;18624;50.042;8.436;2022-09-03T08:11:34;100111.16;;;17.70;80.10
32109;BME280;18624;50.042;8.436;2022-09-03T08:14:03;100097.34;;;17.55;83.51
32109;BME280;18624;50.042;8.436;2022-09-03T08:16:43;100133.72;;;17.78;82.08
32109;BME280;18624;50.042;8.436;2022-09-03T08:19:12;100096.56;;;17.34;82.65
32109;BME280;18624;50.042;8.436;2022-09-03T08:21:40;100163.31;;;17.86;82.63
32109;BME280;18624;50.042;8.436;2022-09-03T08:24:07;100092.34;;;17.39;82.71
32109;BME280;18624;50.042;8.436;2022-09-03T08:26:36;100169.06;;;17.83;82.52
32109;BME280;18624;50.042;8.436;2022-09-03T08:29:04;100167.25;;;18.00;82.61
32109;BME280;18624;50.042;8.436;2022-09-03T08:31:32;100169.34;;;18.26;86.29
32109;BME280;18624;50.042;8.436;2022-09-03T08:34:00;100117.69;;;17.87;81.05
32109;BME280;18624;50.042;8.436;2022-09-03T08:36:33;100164.69;;;18.37;82.04
32109;BME280;18624;50.042;8.436;2022-09-03T08:39:02;100171.63;;;18.47;82.04
32109;BME280;18624;50.042;8.436;2022-09-03T08:42:01;100181.50;;;18.54;78.33
32109;BME280;18624;50.042;8.436;2022-09-03T08:52:51;100174.19;;;18.51;72.49
32109;BME280;18624;50.042;8.436;2022-09-03T08:57:53;100167.94;;;18.56;78.21
32109;BME280;18624;50.042;8.436;2022-09-03T09:00:21;100178.75;;;18.54;77.92
32109;BME280;18624;50.042;8.436;2022-09-03T09:02:57;100183.13;;;18.40;77.78
32109;BME280;18624;50.042;8.436;2022-09-03T09:05:44;100097.56;;;17.72;78.62
32109;BME280;18624;50.042;8.436;2022-09-03T09:11:04;100208.38;;;18.22;81.39
32109;BME280;18624;50.042;8.436;2022-09-03T09:13:41;100125.69;;;17.65;80.76
32109;BME280;18624;50.042;8.436;2022-09-03T09:16:18;100195.78;;;18.21;76.22
32109;BME280;18624;50.042;8.436;2022-09-03T09:19:13;100192.72;;;18.19;76.15
32109;BME280;18624;50.042;8.436;2022-09-03T09:21:49;100205.97;;;18.30;79.56
32109;BME280;18624;50.042;8.436;2022-09-03T09:24:22;100149.59;;;17.98;79.54
32109;BME280;18624;50.042;8.436;2022-09-03T09:26:55;100212.41;;;18.21;77.84
32109;BME280;18624;50.042;8.436;2022-09-03T09:29:26;100142.38;;;17.85;78.94
32109;BME280;18624;50.042;8.436;2022-09-03T09:31:53;100158.13;;;17.94;78.77
32109;BME280;18624;50.042;8.436;2022-09-03T09:34:20;100197.63;;;18.09;77.02
32109;BME280;18624;50.042;8.436;2022-09-03T09:36:52;100206.25;;;18.11;78.77
32109;BME280;18624;50.042;8.436;2022-09-03T09:39:19;100209.59;;;18.15;79.14
32109;BME280;18624;50.042;8.436;2022-09-03T09:42:06;100209.28;;;18.13;77.83
32109;BME280;18624;50.042;8.436;2022-09-03T09:44:37;100224.06;;;18.25;81.05
32109;BME280;18624;50.042;8.436;2022-09-03T09:47:12;100185.97;;;18.05;79.15
32109;BME280;18624;50.042;8.436;2022-09-03T09:49:57;100199.38;;;18.27;76.41
32109;BME280;18624;50.042;8.436;2022-09-03T09:52:25;100203.53;;;18.37;78.23
32109;BME280;18624;50.042;8.436;2022-09-03T09:55:06;100179.34;;;18.38;74.91
32109;BME280;18624;50.042;8.436;2022-09-03T09:57:34;100198.72;;;18.58;73.19
32109;BME280;18624;50.042;8.436;2022-09-03T10:00:06;100204.56;;;18.60;72.95
32109;BME280;18624;50.042;8.436;2022-09-03T10:02:39;100194.28;;;18.66;75.72
32109;BME280;18624;50.042;8.436;2022-09-03T10:05:30;100106.88;;;18.10;73.54
32109;BME280;18624;50.042;8.436;2022-09-03T10:08:01;100142.78;;;18.39;73.79
32109;BME280;18624;50.042;8.436;2022-09-03T10:10:31;100198.28;;;18.86;75.22
32109;BME280;18624;50.042;8.436;2022-09-03T10:13:05;100203.19;;;18.96;74.14
32109;BME280;18624;50.042;8.436;2022-09-03T10:23:25;100154.19;;;18.93;74.57
32109;BME280;18624;50.042;8.436;2022-09-03T10:28:26;100195.84;;;19.25;72.13
32109;BME280;18624;50.042;8.436;2022-09-03T10:33:41;100175.78;;;19.10;70.99
32109;BME280;18624;50.042;8.436;2022-09-03T10:39:49;100194.13;;;19.28;72.48
32109;BME280;18624;50.042;8.436;2022-09-03T10:42:40;100195.47;;;19.43;70.85
32109;BME280;18624;50.042;8.436;2022-09-03T10:50:58;100109.88;;;19.10;69.14
32109;BME280;18624;50.042;8.436;2022-09-03T10:56:13;100161.44;;;19.54;70.99
32109;BME280;18624;50.042;8.436;2022-09-03T10:58:50;100203.91;;;19.92;70.78
32109;BME280;18624;50.042;8.436;2022-09-03T11:07:05;100193.66;;;20.15;71.17
32109;BME280;18624;50.042;8.436;2022-09-03T11:09:41;100195.44;;;20.18;70.40
32109;BME280;18624;50.042;8.436;2022-09-03T11:12:41;100185.84;;;20.19;71.24
32109;BME280;18624;50.042;8.436;2022-09-03T11:15:19;100185.09;;;20.24;71.43
32109;BME280;18624;50.042;8.436;2022-09-03T11:20:56;100101.47;;;19.85;69.65
32109;BME280;18624;50.042;8.436;2022-09-03T11:23:28;100078.66;;;19.69;70.54
32109;BME280;18624;50.042;8.436;2022-09-03T11:26:00;100167.94;;;20.37;70.45
32109;BME280;18624;50.042;8.436;2022-09-03T11:31:43;100174.03;;;20.46;70.99
32109;BME280;18624;50.042;8.436;2022-09-03T11:34:25;100162.91;;;20.46;69.79
32109;BME280;18624;50.042;8.436;2022-09-03T11:39:38;100108.69;;;20.25;70.78
32109;BME280;18624;50.042;8.436;2022-09-03T11:42:11;100100.34;;;20.19;70.07
32109;BME280;18624;50.042;8.436;2022-09-03T11:44:41;100155.63;;;20.55;69.45
32109;BME280;18624;50.042;8.436;2022-09-03T11:47:35;100153.34;;;20.59;69.79
32109;BME280;18624;50.042;8.436;2022-09-03T11:50:21;100159.44;;;20.63;68.66
32109;BME280;18624;50.042;8.436;2022-09-03T11:52:49;100161.69;;;20.64;69.36
32109;BME280;18624;50.042;8.436;2022-09-03T11:55:31;100143.72;;;20.65;69.13
32109;BME280;18624;50.042;8.436;2022-09-03T11:58:10;100150.31;;;20.73;70.82
32109;BME280;18624;50.042;8.436;2022-09-03T12:00:40;100143.75;;;20.82;70.89
32109;BME280;18624;50.042;8.436;2022-09-03T12:03:13;100148.84;;;20.89;70.52
32109;BME280;18624;50.042;8.436;2022-09-03T12:05:49;100124.25;;;20.82;70.47
32109;BME280;18624;50.042;8.436;2022-09-03T12:13:55;100133.88;;;20.87;67.84
32109;BME280;18624;50.042;8.436;2022-09-03T12:16:35;100085.19;;;20.43;69.92
32109;BME280;18624;50.042;8.436;2022-09-03T12:19:19;100132.06;;;20.61;71.40
32109;BME280;18624;50.042;8.436;2022-09-03T12:21:48;100129.53;;;20.58;73.52
32109;BME280;18624;50.042;8.436;2022-09-03T12:24:15;100084.44;;;20.37;75.11
32109;BME280;18624;50.042;8.436;2022-09-03T12:26:42;100133.63;;;20.68;75.77
32109;BME280;18624;50.042;8.436;2022-09-03T12:29:21;100043.69;;;20.28;75.93
32109;BME280;18624;50.042;8.436;2022-09-03T12:31:53;100110.56;;;20.79;75.04
32109;BME280;18624;50.042;8.436;2022-09-03T12:34:22;100082.97;;;20.64;73.25
32109;BME280;18624;50.042;8.436;2022-09-03T12:36:52;99957.13;;;19.87;73.11
32109;BME280;18624;50.042;8.436;2022-09-03T12:39:23;100110.84;;;20.92;72.53
32109;BME280;18624;50.042;8.436;2022-09-03T12:42:17;100082.22;;;20.74;73.12
32109;BME280;18624;50.042;8.436;2022-09-03T12:44:45;100119.44;;;20.88;73.72
32109;BME280;18624;50.042;8.436;2022-09-03T12:47:18;100049.81;;;20.49;72.92
32109;BME280;18624;50.042;8.436;2022-09-03T12:50:11;100061.72;;;20.55;72.86
32109;BME280;18624;50.042;8.436;2022-09-03T12:52:50;100071.09;;;20.63;73.33
32109;BME280;18624;50.042;8.436;2022-09-03T12:55:41;100093.84;;;20.84;72.96
32109;BME280;18624;50.042;8.436;2022-09-03T12:58:21;100117.16;;;20.98;73.80
32109;BME280;18624;50.042;8.436;2022-09-03T13:01:14;100056.91;;;20.61;73.48
32109;BME280;18624;50.042;8.436;2022-09-03T13:04:01;100097.16;;;20.88;74.23
32109;BME280;18624;50.042;8.436;2022-09-03T13:06:39;100114.38;;;21.04;73.98
32109;BME280;18624;50.042;8.436;2022-09-03T13:09:10;100079.16;;;20.84;73.20
32109;BME280;18624;50.042;8.436;2022-09-03T13:11:36;99982.19;;;20.20;73.63
32109;BME280;18624;50.042;8.436;2022-09-03T13:14:05;100117.41;;;21.11;73.40
32109;BME280;18624;50.042;8.436;2022-09-03T13:25:02;100099.44;;;21.12;73.13
32109;BME280;18624;50.042;8.436;2022-09-03T13:30:12;100116.09;;;21.29;72.27
32109;BME280;18624;50.042;8.436;2022-09-03T13:35:23;100114.88;;;21.36;72.65
32109;BME280;18624;50.042;8.436;2022-09-03T13:38:19;100114.09;;;21.41;72.14
32109;BME280;18624;50.042;8.436;2022-09-03T13:40:53;100116.63;;;21.50;70.52
32109;BME280;18624;50.042;8.436;2022-09-03T13:43:31;100108.97;;;21.56;68.78
32109;BME280;18624;50.042;8.436;2022-09-03T13:46:07;100057.09;;;21.19;68.57
32109;BME280;18624;50.042;8.436;2022-09-03T13:48:40;100117.84;;;21.60;67.88
32109;BME280;18624;50.042;8.436;2022-09-03T13:51:54;100019.41;;;20.96;68.64
32109;BME280;18624;50.042;8.436;2022-09-03T13:54:29;100054.81;;;21.18;69.17
32109;BME280;18624;50.042;8.436;2022-09-03T13:57:45;100108.72;;;21.60;68.98
32109;BME280;18624;50.042;8.436;2022-09-03T14:00:23;100118.31;;;21.70;68.90
32109;BME280;18624;50.042;8.436;2022-09-03T14:02:53;100114.50;;;21.73;68.78
32109;BME280;18624;50.042;8.436;2022-09-03T14:07:59;100114.78;;;21.75;68.93
32109;BME280;18624;50.042;8.436;2022-09-03T14:13:51;100109.97;;;21.76;68.01
32109;BME280;18624;50.042;8.436;2022-09-03T14:16:46;100090.19;;;21.68;68.79
32109;BME280;18624;50.042;8.436;2022-09-03T14:19:34;100102.84;;;21.74;68.38
32109;BME280;18624;50.042;8.436;2022-09-03T14:22:25;100031.25;;;21.30;68.54
32109;BME280;18624;50.042;8.436;2022-09-03T14:24:58;99992.78;;;21.06;69.05
32109;BME280;18624;50.042;8.436;2022-09-03T14:27:28;100089.16;;;21.77;69.09
32109;BME280;18624;50.042;8.436;2022-09-03T14:30:01;100105.34;;;21.89;67.05
32109;BME280;18624;50.042;8.436;2022-09-03T14:32:31;100099.00;;;21.83;68.34
32109;BME280;18624;50.042;8.436;2022-09-03T14:35:27;100109.38;;;21.88;68.83
32109;BME280;18624;50.042;8.436;2022-09-03T14:40:52;100117.28;;;21.84;69.05
32109;BME280;18624;50.042;8.436;2022-09-03T14:46:48;100108.13;;;21.84;69.71
32109;BME280;18624;50.042;8.436;2022-09-03T14:52:12;100099.50;;;21.87;68.30
32109;BME280;18624;50.042;8.436;2022-09-03T15:00:20;100045.69;;;21.40;70.26
32109;BME280;18624;50.042;8.436;2022-09-03T15:05:56;100093.41;;;21.83;70.30
32109;BME280;18624;50.042;8.436;2022-09-03T15:08:49;99983.16;;;21.13;70.45
32109;BME280;18624;50.042;8.436;2022-09-03T15:11:30;100069.63;;;21.77;70.15
32109;BME280;18624;50.042;8.436;2022-09-03T15:14:09;100087.84;;;21.83;70.41
32109;BME280;18624;50.042;8.436;2022-09-03T15:16:57;100087.09;;;21.83;70.52
32109;BME280;18624;50.042;8.436;2022-09-03T15:30:13;100100.53;;;21.84;71.11
32109;BME280;18624;50.042;8.436;2022-09-03T15:33:01;100102.81;;;21.86;71.18
32109;BME280;18624;50.042;8.436;2022-09-03T15:36:02;100041.34;;;21.44;71.48
32109;BME280;18624;50.042;8.436;2022-09-03T15:41:01;100040.56;;;21.49;71.64
32109;BME280;18624;50.042;8.436;2022-09-03T15:43:31;100066.88;;;21.65;71.50
32109;BME280;18624;50.042;8.436;2022-09-03T15:46:03;100100.50;;;21.90;71.75
32109;BME280;18624;50.042;8.436;2022-09-03T15:48:49;100112.16;;;21.88;71.74
32109;BME280;18624;50.042;8.436;2022-09-03T15:51:30;100091.97;;;21.65;71.89
32109;BME280;18624;50.042;8.436;2022-09-03T15:54:11;100115.75;;;21.83;70.99
32109;BME280;18624;50.042;8.436;2022-09-03T15:56:57;100111.22;;;21.74;70.86